Airfield :
LOGIN :

Register | Disclaimer

   EN    FR    IT 

 










Legend :    VFR   Marginal VFR   IFR   Intensive IFR   Very Intensive IFR
Visi :
Ceiling :
>= 8 km
>= 3000ft
5 to 8 km
1000 to 3000 ft
1500m to 5 km
500 to 1000 ft
800 to 1500m
200 to 500 ft
< 800m
< 200 ft
Symbols :   Thunderstorms  Fog  Heavy snow  Heavy precipitations  Wind > 20 kt
SIGMETs :     Misc.  Thunderstorms  Icing  Turbulence  Mountain Waves  Volcanic Ashes






- Airport Elevation : 597 ft
- IATA code : PDV


LBPD - Plovdiv

CURRENT METAR :
  • 040530Z AUTO VRB02KT 2500 1100SW R30/P2000N BR OVC002 M00/M01 Q1018 TEMPO 0800 FZFG

EXPIRED METARs :
  • 040500Z AUTO 28003KT 3400 1200SW R30/P2000N BR BKN001 OVC005 00/M00 Q1018 TEMPO 0800 FZFG
  • 040430Z AUTO 31003KT 1700 BR BKN002 OVC004 M00/M01 Q1018 TEMPO 0800 FZFG
  • 040400Z AUTO VRB01KT 2000 BR BKN002 OVC004 M00/M01 Q1018 TEMPO 0800 FZFG
  • 040330Z AUTO 00000KT 2800 BR SCT002 OVC004 M00/M01 Q1018
  • 040300Z AUTO 00000KT 4200 BR OVC004 00/M01 Q1018

TAF TAF LBPD
Valid from the 04 at 06:00 until the 05 at 06:00 UTC


040500Z 0406/0506 VRB04KT 0600 FZFG BKN002 OVC004
BECMG 0408/0410 3000 BR SCT008 BKN015
TEMPO 0410/0416 5000 BR SCT015 OVC030
TEMPO 0417/0424 3000 RA



MET'MAP, your aeronautical weather chart ! - Copyright ORBIFLY December 2007 - Disclaimer

ORBIFLY MET'MAP TEAM :

Programming & Development : Alexandra Zaïnal
Concept & original design : Baudouin d'Aumeries
Assistance for programming : Marc-Olivier Méhu
Technical & hardware support : Manuel Goepfert

Contact : metmap@orbifly.com




SOURCES & CREDITS :

   NOAA